sensor_id;sensor_type;location;lat;lon;timestamp;temperature;humidity
20068;DHT22;10194;50.824;7.134;2024-01-30T00:02:07;7.10;99.90
20068;DHT22;10194;50.824;7.134;2024-01-30T00:04:32;7.20;99.90
20068;DHT22;10194;50.824;7.134;2024-01-30T00:06:58;7.30;99.90
20068;DHT22;10194;50.824;7.134;2024-01-30T00:09:24;7.20;99.90
20068;DHT22;10194;50.824;7.134;2024-01-30T00:11:50;7.30;99.90
20068;DHT22;10194;50.824;7.134;2024-01-30T00:14:16;7.30;99.90
20068;DHT22;10194;50.824;7.134;2024-01-30T00:16:42;7.20;99.90
20068;DHT22;10194;50.824;7.134;2024-01-30T00:19:08;7.20;99.90
20068;DHT22;10194;50.824;7.134;2024-01-30T00:21:34;7.20;99.90
20068;DHT22;10194;50.824;7.134;2024-01-30T00:23:59;7.20;99.90
20068;DHT22;10194;50.824;7.134;2024-01-30T00:26:25;7.20;99.90
20068;DHT22;10194;50.824;7.134;2024-01-30T00:28:51;7.10;99.90
20068;DHT22;10194;50.824;7.134;2024-01-30T00:31:17;7.00;99.90
20068;DHT22;10194;50.824;7.134;2024-01-30T00:33:42;6.90;99.90
20068;DHT22;10194;50.824;7.134;2024-01-30T00:36:09;7.10;99.90
20068;DHT22;10194;50.824;7.134;2024-01-30T00:38:37;7.10;99.90
20068;DHT22;10194;50.824;7.134;2024-01-30T00:41:03;7.10;99.90
20068;DHT22;10194;50.824;7.134;2024-01-30T00:43:29;7.10;99.90
20068;DHT22;10194;50.824;7.134;2024-01-30T00:45:55;7.10;99.90
20068;DHT22;10194;50.824;7.134;2024-01-30T00:48:21;7.20;99.90
20068;DHT22;10194;50.824;7.134;2024-01-30T00:50:46;7.20;99.90
20068;DHT22;10194;50.824;7.134;2024-01-30T00:53:12;7.10;99.90
20068;DHT22;10194;50.824;7.134;2024-01-30T00:55:38;7.20;99.90
20068;DHT22;10194;50.824;7.134;2024-01-30T00:58:04;7.10;99.90
20068;DHT22;10194;50.824;7.134;2024-01-30T01:00:31;7.00;99.90
20068;DHT22;10194;50.824;7.134;2024-01-30T01:02:58;7.00;99.90
20068;DHT22;10194;50.824;7.134;2024-01-30T01:05:25;7.10;99.90
20068;DHT22;10194;50.824;7.134;2024-01-30T01:07:51;7.20;99.90
20068;DHT22;10194;50.824;7.134;2024-01-30T01:10:17;7.10;99.90
20068;DHT22;10194;50.824;7.134;2024-01-30T01:12:43;7.10;99.90
20068;DHT22;10194;50.824;7.134;2024-01-30T01:15:10;7.10;99.90
20068;DHT22;10194;50.824;7.134;2024-01-30T01:17:37;7.20;99.90
20068;DHT22;10194;50.824;7.134;2024-01-30T01:20:04;7.10;99.90
20068;DHT22;10194;50.824;7.134;2024-01-30T01:22:34;7.20;99.90
20068;DHT22;10194;50.824;7.134;2024-01-30T01:25:00;7.10;99.90
20068;DHT22;10194;50.824;7.134;2024-01-30T01:27:27;7.20;99.90
20068;DHT22;10194;50.824;7.134;2024-01-30T01:29:53;7.20;99.90
20068;DHT22;10194;50.824;7.134;2024-01-30T01:32:19;7.20;99.90
20068;DHT22;10194;50.824;7.134;2024-01-30T01:34:45;7.20;99.90
20068;DHT22;10194;50.824;7.134;2024-01-30T01:37:11;7.20;99.90
20068;DHT22;10194;50.824;7.134;2024-01-30T01:39:36;7.30;99.90
20068;DHT22;10194;50.824;7.134;2024-01-30T01:42:02;7.20;99.90
20068;DHT22;10194;50.824;7.134;2024-01-30T01:44:28;7.20;99.90
20068;DHT22;10194;50.824;7.134;2024-01-30T01:46:54;7.20;99.90
20068;DHT22;10194;50.824;7.134;2024-01-30T01:49:22;7.30;99.90
20068;DHT22;10194;50.824;7.134;2024-01-30T01:51:50;7.30;99.90
20068;DHT22;10194;50.824;7.134;2024-01-30T01:54:18;7.20;99.90
20068;DHT22;10194;50.824;7.134;2024-01-30T01:56:44;7.30;99.90
20068;DHT22;10194;50.824;7.134;2024-01-30T01:59:10;7.20;99.90
20068;DHT22;10194;50.824;7.134;2024-01-30T02:01:37;7.30;99.90
20068;DHT22;10194;50.824;7.134;2024-01-30T02:04:03;7.30;99.90
20068;DHT22;10194;50.824;7.134;2024-01-30T02:06:29;7.30;99.90
20068;DHT22;10194;50.824;7.134;2024-01-30T02:08:55;7.30;99.90
20068;DHT22;10194;50.824;7.134;2024-01-30T02:11:22;7.30;99.90
20068;DHT22;10194;50.824;7.134;2024-01-30T02:13:49;7.30;99.90
20068;DHT22;10194;50.824;7.134;2024-01-30T02:16:15;7.30;99.90
20068;DHT22;10194;50.824;7.134;2024-01-30T02:18:43;7.30;99.90
20068;DHT22;10194;50.824;7.134;2024-01-30T02:21:15;7.40;99.90
20068;DHT22;10194;50.824;7.134;2024-01-30T02:23:43;7.30;99.90
20068;DHT22;10194;50.824;7.134;2024-01-30T02:26:10;7.40;99.90
20068;DHT22;10194;50.824;7.134;2024-01-30T02:28:37;7.40;99.90
20068;DHT22;10194;50.824;7.134;2024-01-30T02:31:04;7.40;99.90
20068;DHT22;10194;50.824;7.134;2024-01-30T02:33:30;7.50;99.90
20068;DHT22;10194;50.824;7.134;2024-01-30T02:35:55;7.40;99.90
20068;DHT22;10194;50.824;7.134;2024-01-30T02:38:21;7.40;99.90
20068;DHT22;10194;50.824;7.134;2024-01-30T02:40:49;7.50;99.90
20068;DHT22;10194;50.824;7.134;2024-01-30T02:43:16;7.40;99.90
20068;DHT22;10194;50.824;7.134;2024-01-30T02:45:42;7.30;99.90
20068;DHT22;10194;50.824;7.134;2024-01-30T02:48:08;7.30;99.90
20068;DHT22;10194;50.824;7.134;2024-01-30T02:50:34;7.20;99.90
20068;DHT22;10194;50.824;7.134;2024-01-30T02:53:00;7.30;99.90
20068;DHT22;10194;50.824;7.134;2024-01-30T02:55:26;7.30;99.90
20068;DHT22;10194;50.824;7.134;2024-01-30T02:57:51;7.30;99.90
20068;DHT22;10194;50.824;7.134;2024-01-30T03:00:19;7.30;99.90
20068;DHT22;10194;50.824;7.134;2024-01-30T03:02:45;7.40;99.90
20068;DHT22;10194;50.824;7.134;2024-01-30T03:05:11;7.40;99.90
20068;DHT22;10194;50.824;7.134;2024-01-30T03:07:37;7.40;99.90
20068;DHT22;10194;50.824;7.134;2024-01-30T03:10:04;7.40;99.90
20068;DHT22;10194;50.824;7.134;2024-01-30T03:12:31;7.40;99.90
20068;DHT22;10194;50.824;7.134;2024-01-30T03:14:57;7.40;99.90
20068;DHT22;10194;50.824;7.134;2024-01-30T03:17:23;7.40;99.90
20068;DHT22;10194;50.824;7.134;2024-01-30T03:19:49;7.40;99.90
20068;DHT22;10194;50.824;7.134;2024-01-30T03:22:15;7.30;99.90
20068;DHT22;10194;50.824;7.134;2024-01-30T03:24:41;7.30;99.90
20068;DHT22;10194;50.824;7.134;2024-01-30T03:27:08;7.30;99.90
20068;DHT22;10194;50.824;7.134;2024-01-30T03:29:34;7.30;99.90
20068;DHT22;10194;50.824;7.134;2024-01-30T03:32:00;7.30;99.90
20068;DHT22;10194;50.824;7.134;2024-01-30T03:34:26;7.30;99.90
20068;DHT22;10194;50.824;7.134;2024-01-30T03:36:51;7.20;99.90
20068;DHT22;10194;50.824;7.134;2024-01-30T03:39:17;7.20;99.90
20068;DHT22;10194;50.824;7.134;2024-01-30T03:41:43;7.20;99.90
20068;DHT22;10194;50.824;7.134;2024-01-30T03:44:10;7.20;99.90
20068;DHT22;10194;50.824;7.134;2024-01-30T03:46:36;7.20;99.90
20068;DHT22;10194;50.824;7.134;2024-01-30T03:49:01;7.20;99.90
20068;DHT22;10194;50.824;7.134;2024-01-30T03:51:27;7.20;99.90
20068;DHT22;10194;50.824;7.134;2024-01-30T03:53:53;7.10;99.90
20068;DHT22;10194;50.824;7.134;2024-01-30T03:56:19;7.10;99.90
20068;DHT22;10194;50.824;7.134;2024-01-30T03:58:45;7.10;99.90
20068;DHT22;10194;50.824;7.134;2024-01-30T04:01:14;7.10;99.90
20068;DHT22;10194;50.824;7.134;2024-01-30T04:03:40;7.10;99.90
20068;DHT22;10194;50.824;7.134;2024-01-30T04:06:07;7.10;99.90
20068;DHT22;10194;50.824;7.134;2024-01-30T04:08:33;7.10;99.90
20068;DHT22;10194;50.824;7.134;2024-01-30T04:11:06;7.10;99.90
20068;DHT22;10194;50.824;7.134;2024-01-30T04:13:32;7.10;99.90
20068;DHT22;10194;50.824;7.134;2024-01-30T04:16:02;7.00;99.90
20068;DHT22;10194;50.824;7.134;2024-01-30T04:18:29;7.00;99.90
20068;DHT22;10194;50.824;7.134;2024-01-30T04:20:55;6.90;99.90
20068;DHT22;10194;50.824;7.134;2024-01-30T04:23:21;6.90;99.90
20068;DHT22;10194;50.824;7.134;2024-01-30T04:25:47;6.90;99.90
20068;DHT22;10194;50.824;7.134;2024-01-30T04:28:12;6.90;99.90
20068;DHT22;10194;50.824;7.134;2024-01-30T04:30:38;6.90;99.90
20068;DHT22;10194;50.824;7.134;2024-01-30T04:33:05;7.00;99.90
20068;DHT22;10194;50.824;7.134;2024-01-30T04:35:30;6.90;99.90
20068;DHT22;10194;50.824;7.134;2024-01-30T04:37:56;6.80;99.90
20068;DHT22;10194;50.824;7.134;2024-01-30T04:40:22;6.80;99.90
20068;DHT22;10194;50.824;7.134;2024-01-30T04:42:48;6.80;99.90
20068;DHT22;10194;50.824;7.134;2024-01-30T04:45:13;6.80;99.90
20068;DHT22;10194;50.824;7.134;2024-01-30T04:47:39;6.70;99.90
20068;DHT22;10194;50.824;7.134;2024-01-30T04:50:08;6.80;99.90
20068;DHT22;10194;50.824;7.134;2024-01-30T04:52:35;6.70;99.90
20068;DHT22;10194;50.824;7.134;2024-01-30T04:55:01;6.80;99.90
20068;DHT22;10194;50.824;7.134;2024-01-30T04:57:27;6.80;99.90
20068;DHT22;10194;50.824;7.134;2024-01-30T04:59:53;6.80;99.90
20068;DHT22;10194;50.824;7.134;2024-01-30T05:02:19;6.70;99.90
20068;DHT22;10194;50.824;7.134;2024-01-30T05:04:44;6.80;99.90
20068;DHT22;10194;50.824;7.134;2024-01-30T05:07:10;6.70;99.90
20068;DHT22;10194;50.824;7.134;2024-01-30T05:09:36;6.60;99.90
20068;DHT22;10194;50.824;7.134;2024-01-30T05:12:02;6.50;99.90
20068;DHT22;10194;50.824;7.134;2024-01-30T05:14:28;6.50;99.90
20068;DHT22;10194;50.824;7.134;2024-01-30T05:16:54;6.60;99.90
20068;DHT22;10194;50.824;7.134;2024-01-30T05:19:20;6.60;99.90
20068;DHT22;10194;50.824;7.134;2024-01-30T05:21:46;6.50;99.90
20068;DHT22;10194;50.824;7.134;2024-01-30T05:24:12;6.40;99.90
20068;DHT22;10194;50.824;7.134;2024-01-30T05:26:38;6.40;99.90
20068;DHT22;10194;50.824;7.134;2024-01-30T05:29:05;6.30;99.90
20068;DHT22;10194;50.824;7.134;2024-01-30T05:31:31;6.20;99.90
20068;DHT22;10194;50.824;7.134;2024-01-30T05:33:57;6.20;99.90
20068;DHT22;10194;50.824;7.134;2024-01-30T05:36:23;6.40;99.90
20068;DHT22;10194;50.824;7.134;2024-01-30T05:38:49;6.30;99.90
20068;DHT22;10194;50.824;7.134;2024-01-30T05:41:15;6.30;99.90
20068;DHT22;10194;50.824;7.134;2024-01-30T05:43:44;6.40;99.90
20068;DHT22;10194;50.824;7.134;2024-01-30T05:46:10;6.30;99.90
20068;DHT22;10194;50.824;7.134;2024-01-30T05:48:35;6.30;99.90
20068;DHT22;10194;50.824;7.134;2024-01-30T05:51:02;6.30;99.90
20068;DHT22;10194;50.824;7.134;2024-01-30T05:53:29;6.30;99.90
20068;DHT22;10194;50.824;7.134;2024-01-30T05:55:55;6.30;99.90
20068;DHT22;10194;50.824;7.134;2024-01-30T05:58:20;6.40;99.90
20068;DHT22;10194;50.824;7.134;2024-01-30T06:00:47;6.50;99.90
20068;DHT22;10194;50.824;7.134;2024-01-30T06:03:12;6.50;99.90
20068;DHT22;10194;50.824;7.134;2024-01-30T06:05:38;6.40;99.90
20068;DHT22;10194;50.824;7.134;2024-01-30T06:08:04;6.40;99.90
20068;DHT22;10194;50.824;7.134;2024-01-30T06:10:30;6.50;99.90
20068;DHT22;10194;50.824;7.134;2024-01-30T06:12:56;6.50;99.90
20068;DHT22;10194;50.824;7.134;2024-01-30T06:15:22;6.60;99.90
20068;DHT22;10194;50.824;7.134;2024-01-30T06:17:47;6.50;99.90
20068;DHT22;10194;50.824;7.134;2024-01-30T06:20:14;6.50;99.90
20068;DHT22;10194;50.824;7.134;2024-01-30T06:22:39;6.50;99.90
20068;DHT22;10194;50.824;7.134;2024-01-30T06:25:05;6.40;99.90
20068;DHT22;10194;50.824;7.134;2024-01-30T06:27:31;6.40;99.90
20068;DHT22;10194;50.824;7.134;2024-01-30T06:29:57;6.40;99.90
20068;DHT22;10194;50.824;7.134;2024-01-30T06:32:23;6.40;99.90
20068;DHT22;10194;50.824;7.134;2024-01-30T06:34:48;6.40;99.90
20068;DHT22;10194;50.824;7.134;2024-01-30T06:37:14;6.40;99.90
20068;DHT22;10194;50.824;7.134;2024-01-30T06:39:40;6.40;99.90
20068;DHT22;10194;50.824;7.134;2024-01-30T06:42:05;6.50;99.90
20068;DHT22;10194;50.824;7.134;2024-01-30T06:44:31;6.40;99.90
20068;DHT22;10194;50.824;7.134;2024-01-30T06:46:57;6.50;99.90
20068;DHT22;10194;50.824;7.134;2024-01-30T06:49:23;6.50;99.90
20068;DHT22;10194;50.824;7.134;2024-01-30T06:51:48;6.50;99.90
20068;DHT22;10194;50.824;7.134;2024-01-30T06:54:14;6.60;99.90
20068;DHT22;10194;50.824;7.134;2024-01-30T06:56:40;6.60;99.90
20068;DHT22;10194;50.824;7.134;2024-01-30T06:59:06;6.50;99.90
20068;DHT22;10194;50.824;7.134;2024-01-30T07:01:32;6.60;99.90
20068;DHT22;10194;50.824;7.134;2024-01-30T07:03:58;6.60;99.90
20068;DHT22;10194;50.824;7.134;2024-01-30T07:06:23;6.60;99.90
20068;DHT22;10194;50.824;7.134;2024-01-30T07:08:50;6.70;99.90
20068;DHT22;10194;50.824;7.134;2024-01-30T07:11:19;6.70;99.90
20068;DHT22;10194;50.824;7.134;2024-01-30T07:13:47;6.60;99.90
20068;DHT22;10194;50.824;7.134;2024-01-30T07:16:14;6.60;99.90
20068;DHT22;10194;50.824;7.134;2024-01-30T07:18:40;6.60;99.90
20068;DHT22;10194;50.824;7.134;2024-01-30T07:21:06;6.60;99.90
20068;DHT22;10194;50.824;7.134;2024-01-30T07:23:32;6.70;99.90
20068;DHT22;10194;50.824;7.134;2024-01-30T07:25:59;6.70;99.90
20068;DHT22;10194;50.824;7.134;2024-01-30T07:28:25;6.70;99.90
20068;DHT22;10194;50.824;7.134;2024-01-30T07:30:51;6.70;99.90
20068;DHT22;10194;50.824;7.134;2024-01-30T07:33:16;6.70;99.90
20068;DHT22;10194;50.824;7.134;2024-01-30T07:35:44;6.70;99.90
20068;DHT22;10194;50.824;7.134;2024-01-30T07:38:11;6.80;99.90
20068;DHT22;10194;50.824;7.134;2024-01-30T07:40:36;6.80;99.90
20068;DHT22;10194;50.824;7.134;2024-01-30T07:43:02;6.80;99.90
20068;DHT22;10194;50.824;7.134;2024-01-30T07:45:28;6.80;99.90
20068;DHT22;10194;50.824;7.134;2024-01-30T07:47:58;6.80;99.90
20068;DHT22;10194;50.824;7.134;2024-01-30T07:50:25;6.90;99.90
20068;DHT22;10194;50.824;7.134;2024-01-30T07:52:51;6.90;99.90
20068;DHT22;10194;50.824;7.134;2024-01-30T07:55:20;6.90;99.90
20068;DHT22;10194;50.824;7.134;2024-01-30T07:57:52;6.90;99.90
20068;DHT22;10194;50.824;7.134;2024-01-30T08:00:20;7.00;99.90
20068;DHT22;10194;50.824;7.134;2024-01-30T08:02:47;7.00;99.90
20068;DHT22;10194;50.824;7.134;2024-01-30T08:05:13;7.00;99.90
20068;DHT22;10194;50.824;7.134;2024-01-30T08:07:41;7.10;99.90
20068;DHT22;10194;50.824;7.134;2024-01-30T08:10:12;7.10;99.90
20068;DHT22;10194;50.824;7.134;2024-01-30T08:12:38;7.20;99.90
20068;DHT22;10194;50.824;7.134;2024-01-30T08:15:05;7.20;99.90
20068;DHT22;10194;50.824;7.134;2024-01-30T08:17:31;7.20;99.90
20068;DHT22;10194;50.824;7.134;2024-01-30T08:19:57;7.30;99.90
20068;DHT22;10194;50.824;7.134;2024-01-30T08:22:23;7.30;99.90
20068;DHT22;10194;50.824;7.134;2024-01-30T08:24:49;7.30;99.90
20068;DHT22;10194;50.824;7.134;2024-01-30T08:27:14;7.40;99.90
20068;DHT22;10194;50.824;7.134;2024-01-30T08:29:40;7.40;99.90
20068;DHT22;10194;50.824;7.134;2024-01-30T08:32:06;7.40;99.90
20068;DHT22;10194;50.824;7.134;2024-01-30T08:34:32;7.50;99.90
20068;DHT22;10194;50.824;7.134;2024-01-30T08:36:58;7.50;99.90
20068;DHT22;10194;50.824;7.134;2024-01-30T08:39:24;7.60;99.90
20068;DHT22;10194;50.824;7.134;2024-01-30T08:41:50;7.60;99.90
20068;DHT22;10194;50.824;7.134;2024-01-30T08:44:16;7.60;99.90
20068;DHT22;10194;50.824;7.134;2024-01-30T08:46:43;7.60;99.90
20068;DHT22;10194;50.824;7.134;2024-01-30T08:49:11;7.70;99.90
20068;DHT22;10194;50.824;7.134;2024-01-30T08:51:39;7.70;99.90
20068;DHT22;10194;50.824;7.134;2024-01-30T08:54:05;7.80;99.90
20068;DHT22;10194;50.824;7.134;2024-01-30T08:56:31;7.80;99.90
20068;DHT22;10194;50.824;7.134;2024-01-30T08:58:56;7.80;99.90
20068;DHT22;10194;50.824;7.134;2024-01-30T09:01:22;7.90;99.90
20068;DHT22;10194;50.824;7.134;2024-01-30T09:03:48;7.90;99.90
20068;DHT22;10194;50.824;7.134;2024-01-30T09:06:14;8.00;99.90
20068;DHT22;10194;50.824;7.134;2024-01-30T09:08:39;8.10;99.90
20068;DHT22;10194;50.824;7.134;2024-01-30T09:11:12;8.10;99.90
20068;DHT22;10194;50.824;7.134;2024-01-30T09:13:39;8.20;99.90
20068;DHT22;10194;50.824;7.134;2024-01-30T09:16:05;8.30;99.90
20068;DHT22;10194;50.824;7.134;2024-01-30T09:18:31;8.30;99.90
20068;DHT22;10194;50.824;7.134;2024-01-30T09:20:57;8.40;99.90
20068;DHT22;10194;50.824;7.134;2024-01-30T09:23:24;8.40;99.90
20068;DHT22;10194;50.824;7.134;2024-01-30T09:25:50;8.40;99.90
20068;DHT22;10194;50.824;7.134;2024-01-30T09:28:17;8.40;99.90
20068;DHT22;10194;50.824;7.134;2024-01-30T09:30:43;8.40;99.90
20068;DHT22;10194;50.824;7.134;2024-01-30T09:33:09;8.40;99.90
20068;DHT22;10194;50.824;7.134;2024-01-30T09:35:36;8.50;99.90
20068;DHT22;10194;50.824;7.134;2024-01-30T09:38:02;8.60;99.90
20068;DHT22;10194;50.824;7.134;2024-01-30T09:40:28;8.60;99.90
20068;DHT22;10194;50.824;7.134;2024-01-30T09:42:54;8.80;99.90
20068;DHT22;10194;50.824;7.134;2024-01-30T09:45:23;8.90;99.90
20068;DHT22;10194;50.824;7.134;2024-01-30T09:47:50;9.10;99.90
20068;DHT22;10194;50.824;7.134;2024-01-30T09:50:17;9.20;99.90
20068;DHT22;10194;50.824;7.134;2024-01-30T09:52:44;9.30;99.90
20068;DHT22;10194;50.824;7.134;2024-01-30T09:55:15;9.40;99.90
20068;DHT22;10194;50.824;7.134;2024-01-30T09:57:42;9.50;99.90
20068;DHT22;10194;50.824;7.134;2024-01-30T10:00:08;9.60;99.90
20068;DHT22;10194;50.824;7.134;2024-01-30T10:02:38;9.60;99.90
20068;DHT22;10194;50.824;7.134;2024-01-30T10:05:04;9.70;99.90
20068;DHT22;10194;50.824;7.134;2024-01-30T10:07:31;9.60;99.90
20068;DHT22;10194;50.824;7.134;2024-01-30T10:09:57;9.70;99.90
20068;DHT22;10194;50.824;7.134;2024-01-30T10:12:25;9.70;99.90
20068;DHT22;10194;50.824;7.134;2024-01-30T10:14:51;9.70;99.90
20068;DHT22;10194;50.824;7.134;2024-01-30T10:17:17;9.80;99.90
20068;DHT22;10194;50.824;7.134;2024-01-30T10:19:42;9.90;99.90
20068;DHT22;10194;50.824;7.134;2024-01-30T10:22:09;9.90;99.90
20068;DHT22;10194;50.824;7.134;2024-01-30T10:24:36;9.90;99.90
20068;DHT22;10194;50.824;7.134;2024-01-30T10:27:02;10.00;99.90
20068;DHT22;10194;50.824;7.134;2024-01-30T10:29:28;10.00;99.90
20068;DHT22;10194;50.824;7.134;2024-01-30T10:32:05;10.10;99.90
20068;DHT22;10194;50.824;7.134;2024-01-30T10:34:32;10.10;99.90
20068;DHT22;10194;50.824;7.134;2024-01-30T10:37:09;10.10;99.90
20068;DHT22;10194;50.824;7.134;2024-01-30T10:39:39;10.20;99.90
20068;DHT22;10194;50.824;7.134;2024-01-30T10:42:05;10.20;99.90
20068;DHT22;10194;50.824;7.134;2024-01-30T10:47:35;10.40;99.90
20068;DHT22;10194;50.824;7.134;2024-01-30T10:50:04;10.40;99.90
20068;DHT22;10194;50.824;7.134;2024-01-30T10:52:32;10.40;99.90
20068;DHT22;10194;50.824;7.134;2024-01-30T10:54:58;10.40;99.90
20068;DHT22;10194;50.824;7.134;2024-01-30T10:57:28;10.40;99.90
20068;DHT22;10194;50.824;7.134;2024-01-30T10:59:57;10.40;99.90
20068;DHT22;10194;50.824;7.134;2024-01-30T11:02:25;10.40;99.90
20068;DHT22;10194;50.824;7.134;2024-01-30T11:04:58;10.50;99.90
20068;DHT22;10194;50.824;7.134;2024-01-30T11:07:29;10.60;99.90
20068;DHT22;10194;50.824;7.134;2024-01-30T11:12:25;10.60;99.90
20068;DHT22;10194;50.824;7.134;2024-01-30T11:15:08;10.60;99.90
20068;DHT22;10194;50.824;7.134;2024-01-30T11:17:53;10.70;99.90
20068;DHT22;10194;50.824;7.134;2024-01-30T11:20:21;10.80;99.90
20068;DHT22;10194;50.824;7.134;2024-01-30T11:22:55;10.80;99.90
20068;DHT22;10194;50.824;7.134;2024-01-30T11:25:22;10.90;99.90
20068;DHT22;10194;50.824;7.134;2024-01-30T11:27:51;10.90;99.90
20068;DHT22;10194;50.824;7.134;2024-01-30T11:30:26;11.00;99.90
20068;DHT22;10194;50.824;7.134;2024-01-30T11:33:05;11.00;99.90
20068;DHT22;10194;50.824;7.134;2024-01-30T11:35:33;11.00;99.90
20068;DHT22;10194;50.824;7.134;2024-01-30T11:38:01;11.10;99.90
20068;DHT22;10194;50.824;7.134;2024-01-30T11:40:29;11.20;99.90
20068;DHT22;10194;50.824;7.134;2024-01-30T11:42:56;11.30;99.90
20068;DHT22;10194;50.824;7.134;2024-01-30T11:45:24;11.40;99.90
20068;DHT22;10194;50.824;7.134;2024-01-30T11:47:49;11.50;99.90
20068;DHT22;10194;50.824;7.134;2024-01-30T11:50:15;11.60;99.90
20068;DHT22;10194;50.824;7.134;2024-01-30T11:52:42;11.60;99.90
20068;DHT22;10194;50.824;7.134;2024-01-30T11:55:09;11.70;99.90
20068;DHT22;10194;50.824;7.134;2024-01-30T11:57:35;11.80;99.90
20068;DHT22;10194;50.824;7.134;2024-01-30T12:00:05;11.80;99.90
20068;DHT22;10194;50.824;7.134;2024-01-30T12:02:36;11.80;99.90
20068;DHT22;10194;50.824;7.134;2024-01-30T12:05:06;11.90;99.90
20068;DHT22;10194;50.824;7.134;2024-01-30T12:07:32;12.00;99.90
20068;DHT22;10194;50.824;7.134;2024-01-30T12:09:59;11.90;99.90
20068;DHT22;10194;50.824;7.134;2024-01-30T12:12:26;12.00;99.90
20068;DHT22;10194;50.824;7.134;2024-01-30T12:14:53;12.00;99.90
20068;DHT22;10194;50.824;7.134;2024-01-30T12:17:29;11.90;99.90
20068;DHT22;10194;50.824;7.134;2024-01-30T12:22:44;11.90;99.90
20068;DHT22;10194;50.824;7.134;2024-01-30T12:25:11;11.90;99.90
20068;DHT22;10194;50.824;7.134;2024-01-30T12:27:38;11.90;99.90
20068;DHT22;10194;50.824;7.134;2024-01-30T12:30:06;12.00;99.90
20068;DHT22;10194;50.824;7.134;2024-01-30T12:32:35;12.00;99.90
20068;DHT22;10194;50.824;7.134;2024-01-30T12:35:02;12.00;99.90
20068;DHT22;10194;50.824;7.134;2024-01-30T12:37:29;12.00;99.90
20068;DHT22;10194;50.824;7.134;2024-01-30T12:39:55;12.10;99.90
20068;DHT22;10194;50.824;7.134;2024-01-30T12:42:21;12.10;99.90
20068;DHT22;10194;50.824;7.134;2024-01-30T12:44:48;12.10;99.90
20068;DHT22;10194;50.824;7.134;2024-01-30T12:47:15;12.00;99.90
20068;DHT22;10194;50.824;7.134;2024-01-30T12:49:44;12.00;99.90
20068;DHT22;10194;50.824;7.134;2024-01-30T12:52:11;12.00;99.90
20068;DHT22;10194;50.824;7.134;2024-01-30T12:54:37;11.90;99.90
20068;DHT22;10194;50.824;7.134;2024-01-30T12:57:04;11.90;99.90
20068;DHT22;10194;50.824;7.134;2024-01-30T12:59:31;11.90;99.90
20068;DHT22;10194;50.824;7.134;2024-01-30T13:01:59;11.90;99.90
20068;DHT22;10194;50.824;7.134;2024-01-30T13:04:26;11.90;99.90
20068;DHT22;10194;50.824;7.134;2024-01-30T13:06:52;11.90;99.90
20068;DHT22;10194;50.824;7.134;2024-01-30T13:09:18;11.80;99.90
20068;DHT22;10194;50.824;7.134;2024-01-30T13:11:45;11.80;99.90
20068;DHT22;10194;50.824;7.134;2024-01-30T13:14:10;11.80;99.90
20068;DHT22;10194;50.824;7.134;2024-01-30T13:16:36;11.80;99.90
20068;DHT22;10194;50.824;7.134;2024-01-30T13:19:02;11.80;99.90
20068;DHT22;10194;50.824;7.134;2024-01-30T13:21:29;11.70;99.90
20068;DHT22;10194;50.824;7.134;2024-01-30T13:23:55;11.70;99.90
20068;DHT22;10194;50.824;7.134;2024-01-30T13:26:21;11.80;99.90
20068;DHT22;10194;50.824;7.134;2024-01-30T13:28:47;11.80;99.90
20068;DHT22;10194;50.824;7.134;2024-01-30T13:31:14;11.70;99.90
20068;DHT22;10194;50.824;7.134;2024-01-30T13:33:40;11.80;99.90
20068;DHT22;10194;50.824;7.134;2024-01-30T13:36:10;11.80;99.90
20068;DHT22;10194;50.824;7.134;2024-01-30T13:38:37;11.80;99.90
20068;DHT22;10194;50.824;7.134;2024-01-30T13:41:09;11.80;99.90
20068;DHT22;10194;50.824;7.134;2024-01-30T13:43:35;11.80;99.90
20068;DHT22;10194;50.824;7.134;2024-01-30T13:46:01;11.70;99.90
20068;DHT22;10194;50.824;7.134;2024-01-30T13:48:27;11.80;99.90
20068;DHT22;10194;50.824;7.134;2024-01-30T13:50:53;11.70;99.90
20068;DHT22;10194;50.824;7.134;2024-01-30T13:53:19;11.70;99.90
20068;DHT22;10194;50.824;7.134;2024-01-30T13:55:45;11.60;99.90
20068;DHT22;10194;50.824;7.134;2024-01-30T13:58:11;11.60;99.90
20068;DHT22;10194;50.824;7.134;2024-01-30T14:00:36;11.70;99.90
20068;DHT22;10194;50.824;7.134;2024-01-30T14:03:02;11.70;99.90
20068;DHT22;10194;50.824;7.134;2024-01-30T14:05:28;11.70;99.90
20068;DHT22;10194;50.824;7.134;2024-01-30T14:07:54;11.70;99.90
20068;DHT22;10194;50.824;7.134;2024-01-30T14:10:20;11.60;99.90
20068;DHT22;10194;50.824;7.134;2024-01-30T14:12:46;11.60;99.90
20068;DHT22;10194;50.824;7.134;2024-01-30T14:15:15;11.60;99.90
20068;DHT22;10194;50.824;7.134;2024-01-30T14:17:44;11.60;99.90
20068;DHT22;10194;50.824;7.134;2024-01-30T14:20:14;11.60;99.90
20068;DHT22;10194;50.824;7.134;2024-01-30T14:22:44;11.60;99.90
20068;DHT22;10194;50.824;7.134;2024-01-30T14:25:10;11.60;99.90
20068;DHT22;10194;50.824;7.134;2024-01-30T14:27:36;11.50;99.90
20068;DHT22;10194;50.824;7.134;2024-01-30T14:30:02;11.60;99.90
20068;DHT22;10194;50.824;7.134;2024-01-30T14:32:29;11.50;99.90
20068;DHT22;10194;50.824;7.134;2024-01-30T14:34:54;11.60;99.90
20068;DHT22;10194;50.824;7.134;2024-01-30T14:37:21;11.60;99.90
20068;DHT22;10194;50.824;7.134;2024-01-30T14:39:47;11.50;99.90
20068;DHT22;10194;50.824;7.134;2024-01-30T14:42:14;11.40;99.90
20068;DHT22;10194;50.824;7.134;2024-01-30T14:44:40;11.40;99.90
20068;DHT22;10194;50.824;7.134;2024-01-30T14:47:07;11.30;99.90
20068;DHT22;10194;50.824;7.134;2024-01-30T14:49:33;11.30;99.90
20068;DHT22;10194;50.824;7.134;2024-01-30T14:51:59;11.20;99.90
20068;DHT22;10194;50.824;7.134;2024-01-30T14:54:26;11.20;99.90
20068;DHT22;10194;50.824;7.134;2024-01-30T14:56:53;11.20;99.90
20068;DHT22;10194;50.824;7.134;2024-01-30T14:59:19;11.20;99.90
20068;DHT22;10194;50.824;7.134;2024-01-30T15:01:45;11.20;99.90
20068;DHT22;10194;50.824;7.134;2024-01-30T15:04:10;11.20;99.90
20068;DHT22;10194;50.824;7.134;2024-01-30T15:06:37;11.20;99.90
20068;DHT22;10194;50.824;7.134;2024-01-30T15:09:03;11.20;99.90
20068;DHT22;10194;50.824;7.134;2024-01-30T15:11:29;11.20;99.90
20068;DHT22;10194;50.824;7.134;2024-01-30T15:13:56;11.20;99.90
20068;DHT22;10194;50.824;7.134;2024-01-30T15:16:21;11.10;99.90
20068;DHT22;10194;50.824;7.134;2024-01-30T15:18:47;11.10;99.90
20068;DHT22;10194;50.824;7.134;2024-01-30T15:21:13;11.00;99.90
20068;DHT22;10194;50.824;7.134;2024-01-30T15:23:39;11.00;99.90
20068;DHT22;10194;50.824;7.134;2024-01-30T15:26:04;11.00;99.90
20068;DHT22;10194;50.824;7.134;2024-01-30T15:28:37;10.90;99.90
20068;DHT22;10194;50.824;7.134;2024-01-30T15:31:04;10.90;99.90
20068;DHT22;10194;50.824;7.134;2024-01-30T15:33:31;10.90;99.90
20068;DHT22;10194;50.824;7.134;2024-01-30T15:35:59;10.80;99.90
20068;DHT22;10194;50.824;7.134;2024-01-30T15:38:25;10.80;99.90
20068;DHT22;10194;50.824;7.134;2024-01-30T15:40:52;10.80;99.90
20068;DHT22;10194;50.824;7.134;2024-01-30T15:43:18;10.80;99.90
20068;DHT22;10194;50.824;7.134;2024-01-30T15:45:43;10.70;99.90